createdAt,value
2023-03-13T00:00:30.421Z,15.45
2023-03-13T00:02:57.287Z,14.98
2023-03-13T00:05:23.931Z,12.85
2023-03-13T00:07:50.628Z,12.57
2023-03-13T00:10:19.083Z,15.07
2023-03-13T00:12:45.778Z,13.38
2023-03-13T00:15:12.800Z,12.30
2023-03-13T00:17:47.070Z,13.55
2023-03-13T00:22:45.971Z,14.25
2023-03-13T00:25:21.972Z,14.85
2023-03-13T00:27:49.516Z,12.93
2023-03-13T00:30:22.293Z,12.93
2023-03-13T00:32:49.154Z,11.93
2023-03-13T00:35:20.208Z,12.95
2023-03-13T00:37:49.819Z,13.18
2023-03-13T00:40:20.231Z,15.98
2023-03-13T00:42:46.874Z,14.70
2023-03-13T00:45:13.576Z,15.40
2023-03-13T00:47:45.517Z,18.92
2023-03-13T00:50:12.390Z,18.65
2023-03-13T00:52:52.211Z,13.93
2023-03-13T00:55:19.077Z,28.13
2023-03-13T00:57:47.211Z,17.30
2023-03-13T01:00:22.977Z,18.60
2023-03-13T01:02:49.704Z,16.75
2023-03-13T01:05:19.493Z,20.33
2023-03-13T01:07:46.214Z,17.48
2023-03-13T01:10:18.939Z,25.85
2023-03-13T01:12:45.744Z,18.25
2023-03-13T01:15:18.142Z,19.55
2023-03-13T01:17:47.394Z,24.52
2023-03-13T01:20:19.437Z,17.98
2023-03-13T01:22:49.241Z,19.75
2023-03-13T01:25:38.386Z,19.88
2023-03-13T01:28:05.414Z,23.42
2023-03-13T01:30:32.330Z,18.48
2023-03-13T01:32:59.083Z,15.77
2023-03-13T01:35:25.841Z,25.60
2023-03-13T01:37:52.505Z,17.52
2023-03-13T01:40:19.471Z,19.13
2023-03-13T01:43:00.103Z,16.58
2023-03-13T01:46:05.550Z,19.17
2023-03-13T01:48:45.331Z,18.85
2023-03-13T01:51:25.750Z,19.88
2023-03-13T01:54:21.179Z,21.42
2023-03-13T01:57:21.893Z,22.50
2023-03-13T02:00:04.417Z,25.17
2023-03-13T02:02:31.842Z,25.20
2023-03-13T02:05:09.355Z,23.92
2023-03-13T02:07:54.674Z,21.45
2023-03-13T02:10:23.620Z,22.52
2023-03-13T02:12:52.405Z,22.70
2023-03-13T02:15:25.979Z,20.10
2023-03-13T02:17:54.852Z,24.00
2023-03-13T02:20:23.962Z,23.17
2023-03-13T02:23:29.523Z,21.75
2023-03-13T02:25:57.047Z,26.00
2023-03-13T02:28:33.795Z,20.55
2023-03-13T02:31:02.225Z,22.63
2023-03-13T02:33:45.513Z,24.65
2023-03-13T02:36:17.326Z,23.77
2023-03-13T02:39:14.198Z,16.02
2023-03-13T02:41:50.251Z,25.58
2023-03-13T02:44:16.987Z,22.63
2023-03-13T02:46:52.546Z,21.77
2023-03-13T02:49:32.880Z,26.02
2023-03-13T02:52:49.801Z,20.17
2023-03-13T02:55:30.071Z,22.75
2023-03-13T02:57:57.030Z,25.27
2023-03-13T03:00:27.650Z,19.20
2023-03-13T03:02:55.413Z,17.63
2023-03-13T03:05:24.772Z,16.63
2023-03-13T03:07:54.606Z,16.55
2023-03-13T03:10:27.601Z,14.88
2023-03-13T03:12:54.223Z,14.60
2023-03-13T03:15:22.665Z,14.30
2023-03-13T03:17:49.318Z,16.85
2023-03-13T03:20:16.122Z,18.05
2023-03-13T03:22:46.134Z,16.77
2023-03-13T03:25:13.144Z,19.38
2023-03-13T03:27:45.991Z,17.20
2023-03-13T03:30:13.132Z,20.20
2023-03-13T03:32:41.987Z,18.88
2023-03-13T03:35:11.004Z,21.50
2023-03-13T03:37:44.068Z,19.15
2023-03-13T03:40:12.509Z,18.63
2023-03-13T03:42:42.333Z,19.05
2023-03-13T03:45:09.624Z,16.67
2023-03-13T03:47:36.287Z,18.98
2023-03-13T03:50:04.361Z,17.58
2023-03-13T03:52:36.388Z,16.42
2023-03-13T03:55:03.166Z,19.15
2023-03-13T03:57:33.132Z,16.25
2023-03-13T03:59:59.860Z,16.90
2023-03-13T04:02:26.516Z,17.60
2023-03-13T04:04:58.800Z,14.95
2023-03-13T04:07:26.319Z,18.15
2023-03-13T04:09:53.051Z,16.35
2023-03-13T04:12:24.062Z,15.43
2023-03-13T04:14:50.716Z,16.10
2023-03-13T04:17:27.044Z,17.27
2023-03-13T04:19:53.782Z,16.35
2023-03-13T04:22:23.476Z,17.60
2023-03-13T04:24:53.305Z,16.48
2023-03-13T04:27:20.034Z,23.67
2023-03-13T04:29:46.962Z,19.23
2023-03-13T04:32:13.955Z,18.13
2023-03-13T04:34:43.673Z,21.30
2023-03-13T04:37:10.536Z,18.02
2023-03-13T04:39:37.227Z,15.70
2023-03-13T04:42:07.416Z,17.25
2023-03-13T04:44:43.613Z,17.65
2023-03-13T04:47:12.234Z,19.33
2023-03-13T04:49:44.413Z,18.70
2023-03-13T04:52:11.593Z,17.80
2023-03-13T04:54:39.646Z,19.17
2023-03-13T04:57:06.513Z,17.83
2023-03-13T04:59:33.195Z,20.27
2023-03-13T05:01:59.862Z,14.45
2023-03-13T05:04:26.560Z,31.75
2023-03-13T05:06:53.229Z,33.47
2023-03-13T05:09:19.989Z,20.08
2023-03-13T05:11:59.095Z,18.83
2023-03-13T05:14:26.203Z,17.75
2023-03-13T05:16:52.809Z,21.05
2023-03-13T05:19:19.670Z,24.30
2023-03-13T05:21:46.456Z,18.85
2023-03-13T05:24:13.069Z,23.33
2023-03-13T05:26:43.954Z,18.45
2023-03-13T05:29:10.712Z,19.50
2023-03-13T05:31:37.352Z,20.80
2023-03-13T05:34:06.720Z,18.70
2023-03-13T05:36:33.686Z,20.95
2023-03-13T05:39:00.548Z,19.67
2023-03-13T05:41:27.251Z,20.88
2023-03-13T05:43:53.971Z,19.20
2023-03-13T05:46:20.749Z,22.23
2023-03-13T05:48:47.571Z,24.02
2023-03-13T05:51:14.274Z,22.48
2023-03-13T05:53:49.692Z,20.25
2023-03-13T05:56:16.325Z,17.48
2023-03-13T05:58:48.756Z,29.67
2023-03-13T06:01:15.543Z,21.77
2023-03-13T06:03:45.239Z,17.17
2023-03-13T06:06:11.939Z,18.98
2023-03-13T06:08:38.628Z,19.30
2023-03-13T06:11:05.557Z,18.67
2023-03-13T06:13:32.301Z,19.42
2023-03-13T06:15:59.952Z,16.73
2023-03-13T06:18:29.675Z,16.30
2023-03-13T06:21:01.535Z,18.65
2023-03-13T06:23:35.456Z,14.45
2023-03-13T06:26:02.171Z,17.17
2023-03-13T06:28:29.171Z,20.25
2023-03-13T06:31:01.454Z,12.50
2023-03-13T06:33:34.658Z,11.98
2023-03-13T06:36:03.115Z,13.02
2023-03-13T06:38:31.566Z,13.60
2023-03-13T06:40:59.327Z,12.27
2023-03-13T06:43:30.095Z,13.18
2023-03-13T06:45:59.959Z,15.13
2023-03-13T06:48:29.351Z,11.30
2023-03-13T06:50:56.607Z,20.77
2023-03-13T06:53:23.477Z,10.98
2023-03-13T06:55:53.040Z,8.80
2023-03-13T06:58:31.738Z,10.52
2023-03-13T07:01:12.709Z,12.45
2023-03-13T07:03:52.209Z,8.98
2023-03-13T07:06:19.383Z,7.25
2023-03-13T07:08:49.714Z,8.73
2023-03-13T07:11:16.610Z,8.07
2023-03-13T07:13:43.731Z,8.50
2023-03-13T07:16:16.659Z,9.68
2023-03-13T07:18:44.813Z,8.60
2023-03-13T07:21:12.948Z,10.45
2023-03-13T07:34:32.518Z,7.50
2023-03-13T07:36:59.288Z,6.90
2023-03-13T07:39:28.569Z,7.63
2023-03-13T07:55:20.079Z,12.18
2023-03-13T07:57:46.741Z,8.80
2023-03-13T08:00:16.452Z,9.23
2023-03-13T08:02:46.191Z,7.97
2023-03-13T08:05:13.032Z,9.90
2023-03-13T08:07:43.427Z,7.13
2023-03-13T08:10:11.183Z,6.72
2023-03-13T08:12:37.825Z,5.53
2023-03-13T08:15:05.246Z,6.35
2023-03-13T08:17:33.617Z,6.07
2023-03-13T08:20:00.290Z,6.40
2023-03-13T08:22:26.920Z,6.50
2023-03-13T08:24:59.772Z,8.20
2023-03-13T08:27:32.850Z,5.68
2023-03-13T08:29:59.514Z,4.85
2023-03-13T08:32:26.182Z,4.90
2023-03-13T08:34:52.829Z,5.20
2023-03-13T08:37:19.640Z,4.78
2023-03-13T08:39:46.425Z,7.95
2023-03-13T08:42:14.319Z,7.50
2023-03-13T08:44:44.710Z,5.97
2023-03-13T08:47:11.428Z,9.10
2023-03-13T08:49:45.271Z,5.85
2023-03-13T08:52:12.004Z,5.55
2023-03-13T08:54:38.723Z,4.75
2023-03-13T08:57:05.427Z,4.43
2023-03-13T08:59:35.221Z,5.43
2023-03-13T09:02:03.061Z,7.45
2023-03-13T09:04:31.933Z,6.22
2023-03-13T09:06:58.915Z,7.30
2023-03-13T09:09:25.566Z,6.63
2023-03-13T09:11:54.826Z,7.13
2023-03-13T09:14:21.589Z,14.48
2023-03-13T09:16:51.199Z,5.55
2023-03-13T09:19:18.008Z,11.73
2023-03-13T09:21:46.478Z,15.93
2023-03-13T09:24:13.214Z,6.85
2023-03-13T09:26:46.470Z,9.35
2023-03-13T09:29:15.742Z,16.55
2023-03-13T09:31:42.659Z,9.77
2023-03-13T09:34:15.403Z,5.82
2023-03-13T09:36:45.222Z,8.68
2023-03-13T09:39:12.016Z,7.65
2023-03-13T09:42:07.916Z,18.20
2023-03-13T09:45:16.532Z,8.82
2023-03-13T09:48:02.865Z,8.05
2023-03-13T09:50:44.835Z,19.90
2023-03-13T09:53:33.198Z,7.22
2023-03-13T09:56:05.260Z,8.10
2023-03-13T09:58:35.606Z,16.88
2023-03-13T10:01:06.227Z,16.17
2023-03-13T10:04:33.120Z,8.45
2023-03-13T10:06:59.847Z,8.27
2023-03-13T10:09:37.658Z,10.07
2023-03-13T10:12:12.390Z,9.05
2023-03-13T10:14:47.246Z,8.75
2023-03-13T10:17:31.317Z,6.35
2023-03-13T10:20:28.939Z,15.73
2023-03-13T10:24:00.276Z,5.30
2023-03-13T10:26:37.675Z,24.50
2023-03-13T10:29:25.118Z,5.00
2023-03-13T10:32:10.518Z,20.15
2023-03-13T10:35:06.040Z,32.58
2023-03-13T10:37:43.992Z,7.38
2023-03-13T10:40:28.701Z,11.98
2023-03-13T10:43:26.319Z,13.90
2023-03-13T10:45:53.899Z,9.32
2023-03-13T10:48:36.536Z,9.75
2023-03-13T10:51:03.268Z,12.70
2023-03-13T10:53:29.992Z,14.02
2023-03-13T10:56:16.083Z,15.85
2023-03-13T10:58:53.086Z,6.80
2023-03-13T11:01:36.068Z,17.83
2023-03-13T11:04:38.251Z,7.18
2023-03-13T11:07:34.820Z,9.98
2023-03-13T11:10:29.961Z,9.20
2023-03-13T11:12:59.104Z,20.13
2023-03-13T11:15:38.313Z,13.25
2023-03-13T11:18:22.370Z,13.45
2023-03-13T11:20:50.094Z,18.02
2023-03-13T11:23:37.233Z,67.90
2023-03-13T11:26:29.745Z,15.38
2023-03-13T11:29:36.842Z,40.95
2023-03-13T11:32:25.228Z,8.32
2023-03-13T11:35:04.158Z,12.45
2023-03-13T11:37:44.534Z,6.32
2023-03-13T11:40:22.645Z,7.20
2023-03-13T11:43:57.925Z,11.30
2023-03-13T11:47:15.544Z,6.30
2023-03-13T11:50:14.091Z,17.70
2023-03-13T11:53:58.572Z,11.95
2023-03-13T11:56:57.576Z,9.60
2023-03-13T11:59:54.361Z,9.35
2023-03-13T12:02:41.634Z,7.78
2023-03-13T12:05:26.246Z,9.23
2023-03-13T12:08:07.819Z,9.80
2023-03-13T12:11:17.956Z,12.23
2023-03-13T13:33:58.998Z,7.13
2023-03-13T13:36:43.307Z,4.30
2023-03-13T13:39:53.984Z,5.43
2023-03-13T13:42:30.684Z,4.03
2023-03-13T13:45:33.376Z,6.55
2023-03-13T13:48:48.687Z,17.90
2023-03-13T13:51:19.627Z,5.72
2023-03-13T13:54:05.716Z,9.93
2023-03-13T13:57:22.943Z,5.38
2023-03-13T14:00:24.160Z,4.43
2023-03-13T14:02:55.490Z,4.38
2023-03-13T14:05:32.387Z,4.82
2023-03-13T14:08:20.266Z,5.25
2023-03-13T14:11:07.710Z,4.68
2023-03-13T14:13:34.629Z,3.67
2023-03-13T14:16:25.632Z,3.80
2023-03-13T14:18:53.538Z,3.35
2023-03-13T14:21:25.390Z,4.28
2023-03-13T14:23:53.285Z,3.92
2023-03-13T14:26:28.949Z,4.45
2023-03-13T14:29:06.655Z,2.97
2023-03-13T14:31:39.200Z,4.30
2023-03-13T14:34:12.900Z,3.72
2023-03-13T14:37:14.833Z,3.30
2023-03-13T14:39:48.602Z,6.80
2023-03-13T14:42:20.142Z,3.60
2023-03-13T14:44:50.347Z,3.58
2023-03-13T14:47:31.411Z,3.35
2023-03-13T14:50:10.129Z,4.82
2023-03-13T14:52:42.265Z,3.78
2023-03-13T14:55:21.789Z,3.80
2023-03-13T14:58:29.393Z,7.53
2023-03-13T15:01:15.751Z,3.70
2023-03-13T15:03:48.727Z,4.07
2023-03-13T15:06:23.876Z,4.03
2023-03-13T15:09:10.597Z,4.18
2023-03-13T15:12:02.878Z,4.82
2023-03-13T15:14:54.219Z,3.28
2023-03-13T15:17:26.599Z,3.17
2023-03-13T15:19:59.547Z,4.28
2023-03-13T15:22:32.792Z,3.35
2023-03-13T15:25:07.946Z,4.93
2023-03-13T15:27:35.879Z,3.95
2023-03-13T15:30:03.041Z,4.00
2023-03-13T15:32:37.515Z,4.45
2023-03-13T15:35:23.136Z,4.20
2023-03-13T15:37:51.684Z,3.38
2023-03-13T15:40:20.152Z,3.88
2023-03-13T15:42:47.361Z,8.90
2023-03-13T15:45:14.166Z,3.90
2023-03-13T15:47:45.935Z,6.70
2023-03-13T15:50:18.773Z,4.60
2023-03-13T15:52:55.424Z,18.40
2023-03-13T15:55:29.065Z,3.95
2023-03-13T15:57:56.098Z,4.07
2023-03-13T16:00:26.438Z,4.75
2023-03-13T16:02:53.386Z,4.43
2023-03-13T16:05:20.501Z,4.53
2023-03-13T16:07:47.394Z,4.30
2023-03-13T16:10:43.171Z,3.70
2023-03-13T16:13:10.342Z,5.38
2023-03-13T16:15:37.820Z,4.35
2023-03-13T16:18:06.560Z,3.90
2023-03-13T16:20:46.882Z,4.60
2023-03-13T16:23:15.305Z,4.75
2023-03-13T16:25:49.314Z,18.20
2023-03-13T16:28:16.582Z,4.30
2023-03-13T16:31:12.979Z,6.18
2023-03-13T16:33:41.572Z,3.67
2023-03-13T16:36:17.986Z,6.25
2023-03-13T16:38:54.685Z,4.43
2023-03-13T16:41:25.314Z,4.30
2023-03-13T16:43:56.621Z,4.15
2023-03-13T16:47:04.435Z,4.75
2023-03-13T16:49:42.008Z,4.22
2023-03-13T16:52:17.892Z,5.22
2023-03-13T16:54:47.971Z,5.53
2023-03-13T16:57:24.061Z,5.20
2023-03-13T16:59:52.399Z,4.00
2023-03-13T17:02:20.945Z,6.60
2023-03-13T17:04:54.184Z,4.80
2023-03-13T17:07:30.953Z,5.43
2023-03-13T17:09:57.836Z,6.13
2023-03-13T17:12:27.404Z,6.38
2023-03-13T17:14:54.310Z,6.05
2023-03-13T17:17:23.452Z,6.88
2023-03-13T17:19:50.335Z,7.38
2023-03-13T17:22:18.916Z,5.97
2023-03-13T17:24:49.306Z,5.03
2023-03-13T17:27:21.809Z,4.93
2023-03-13T17:29:50.911Z,5.40
2023-03-13T17:32:17.805Z,4.82
2023-03-13T17:34:52.181Z,5.30
2023-03-13T17:37:21.648Z,5.32
2023-03-13T17:39:51.541Z,6.35
2023-03-13T17:42:19.023Z,6.00
2023-03-13T17:44:48.994Z,5.28
2023-03-13T17:47:26.487Z,4.65
2023-03-13T17:49:53.271Z,5.25
2023-03-13T17:52:22.937Z,6.72
2023-03-13T17:54:51.042Z,6.35
2023-03-13T17:57:29.072Z,4.75
2023-03-13T17:59:55.822Z,7.00
2023-03-13T18:02:26.268Z,8.63
2023-03-13T18:04:56.747Z,6.30
2023-03-13T18:07:32.796Z,8.82
2023-03-13T18:09:59.608Z,6.53
2023-03-13T18:12:29.613Z,8.60
2023-03-13T18:14:56.236Z,6.18
2023-03-13T18:17:27.697Z,7.88
2023-03-13T18:19:54.352Z,5.35
2023-03-13T18:22:21.604Z,5.80
2023-03-13T18:24:56.994Z,4.88
2023-03-13T18:27:32.963Z,5.07
2023-03-13T18:29:59.696Z,5.75
2023-03-13T18:32:31.457Z,6.18
2023-03-13T18:35:00.168Z,6.78
2023-03-13T18:37:35.632Z,5.75
2023-03-13T18:40:04.358Z,5.45
2023-03-13T18:42:31.097Z,5.50
2023-03-13T18:44:58.893Z,5.95
2023-03-13T18:47:28.455Z,5.70
2023-03-13T18:49:55.535Z,5.40
2023-03-13T18:52:24.558Z,9.90
2023-03-13T18:54:51.215Z,9.85
2023-03-13T18:57:22.163Z,5.45
2023-03-13T19:36:17.567Z,5.28
2023-03-13T20:09:09.250Z,5.90
2023-03-13T20:33:16.105Z,5.47
2023-03-13T20:49:11.385Z,6.20
2023-03-13T21:21:29.902Z,5.53
2023-03-13T22:01:59.415Z,5.10
2023-03-13T22:18:31.519Z,5.53
2023-03-13T22:21:00.154Z,6.03
2023-03-13T22:23:27.098Z,5.35
2023-03-13T22:25:59.416Z,5.45
2023-03-13T22:28:27.371Z,6.60
2023-03-13T22:30:54.258Z,5.45
2023-03-13T22:33:21.288Z,5.80
2023-03-13T22:35:54.544Z,6.05
2023-03-13T22:38:22.432Z,6.80
2023-03-13T22:41:02.993Z,6.40
2023-03-13T22:43:30.687Z,4.93
2023-03-13T22:45:59.871Z,6.32
2023-03-13T22:48:27.794Z,5.25
2023-03-13T22:51:13.138Z,5.30
2023-03-13T22:53:43.642Z,5.85
2023-03-13T22:56:12.411Z,5.63
2023-03-13T22:58:41.990Z,7.50
2023-03-13T23:01:13.687Z,14.90
2023-03-13T23:03:44.964Z,4.43
2023-03-13T23:06:20.923Z,5.93
2023-03-13T23:08:47.948Z,6.38
2023-03-13T23:11:15.789Z,5.68
2023-03-13T23:13:45.458Z,6.10
2023-03-13T23:16:13.829Z,5.30
2023-03-13T23:18:44.645Z,6.18
2023-03-13T23:21:14.979Z,6.22
2023-03-13T23:23:44.869Z,6.68
2023-03-13T23:26:15.934Z,7.57
2023-03-13T23:28:45.715Z,5.53
2023-03-13T23:31:18.408Z,6.10
2023-03-13T23:33:51.273Z,6.25
2023-03-13T23:36:19.775Z,5.82
2023-03-13T23:38:53.507Z,5.32
2023-03-13T23:41:21.741Z,8.15
2023-03-13T23:43:48.494Z,6.22
2023-03-13T23:46:23.408Z,6.25
2023-03-13T23:48:56.514Z,6.20
2023-03-13T23:51:25.117Z,7.63
2023-03-13T23:53:52.187Z,6.57
2023-03-13T23:56:19.488Z,7.47
2023-03-13T23:58:46.144Z,5.65
